This is the latest recevied weather packets stored in our database for station/object KI5NYZ-13. If no packets are shown the sender has not sent any weather packets the latest 10 day(s).
| Time | Temp. | Humidity | Pressure | Rain* | Wind** | Luminosity | Snow |
|---|---|---|---|---|---|---|---|
| 1777674737 | 12.22° C | 79% | 1016.9 hPa | 0 mm | - | - | - |
| 1777672935 | 12.22° C | 77% | 1016.5 hPa | 0 mm | - | - | - |
| 1777671134 | 12.22° C | 73% | 1016.5 hPa | 0 mm | - | - | - |
| 1777669154 | 12.22° C | 75% | 1017 hPa | 0 mm | - | - | - |
| 1777667353 | 12.22° C | 66% | 1017 hPa | 0 mm | - | - | - |
| 1777665552 | 12.22° C | 72% | 1017.2 hPa | 0 mm | - | - | - |
| 1777663751 | 11.67° C | 75% | 1017.3 hPa | 0.25 mm | - | - | - |
| 1777661950 | 11.11° C | 74% | 1018 hPa | 0.51 mm | - | - | - |
| 1777660149 | 11.11° C | 74% | 1018.4 hPa | 0.51 mm | - | - | - |
| 1777656488 | 10° C | 78% | 1019.3 hPa | 0 mm | - | - | - |
| 1777654687 | 10° C | 78% | 1019.6 hPa | 0 mm | - | - | - |
| 1777652886 | 10° C | 89% | 1019.3 hPa | 0 mm | - | - | - |
| 1777651085 | 9.44° C | 94% | 1019.5 hPa | 0.25 mm | - | - | - |
| 1777649284 | 8.89° C | 93% | 1019.2 hPa | 0.51 mm | - | - | - |
| 1777647483 | 8.89° C | 92% | 1018.7 hPa | 1.02 mm | - | - | - |
| 1777645682 | 9.44° C | 93% | 1016.5 hPa | 1.27 mm | - | - | - |
| 1777643881 | 9.44° C | 97% | 1015.1 hPa | 0.76 mm | - | - | - |
| 1777642080 | 9.44° C | 96% | 1016.6 hPa | 0.25 mm | - | - | - |
| 1777638956 | 10° C | 95% | 1015.9 hPa | 0.25 mm | - | - | - |
| 1777637155 | 10° C | 96% | 1015.6 hPa | 0.25 mm | - | - | - |
| 1777635354 | 10° C | 95% | 1015.2 hPa | 0 mm | - | - | - |
| 1777633553 | 10° C | 96% | 1015.2 hPa | 0 mm | - | - | - |
| 1777631752 | 10° C | 94% | 1015.4 hPa | 0 mm | - | - | - |
| 1777629951 | 10.56° C | 94% | 1015.1 hPa | 0 mm | - | - | - |
| 1777628150 | 10.56° C | 92% | 1015.2 hPa | 0 mm | - | - | - |
* Rain latest hour (hover to see other rain measurements)
** Current wind speed in m/s (hover to see current wind gust speed)